createdAt,value
2023-02-22T00:00:50.150Z,93674.00
2023-02-22T00:02:10.727Z,93668.78
2023-02-22T00:03:08.150Z,93548.28
2023-02-22T00:04:06.859Z,93665.28
2023-02-22T00:05:03.508Z,93665.88
2023-02-22T00:06:04.316Z,93673.19
2023-02-22T00:07:02.070Z,93671.53
2023-02-22T00:08:00.927Z,93670.31
2023-02-22T00:08:58.682Z,93634.50
2023-02-22T00:09:56.923Z,93669.41
2023-02-22T00:10:53.520Z,93674.31
2023-02-22T00:11:50.218Z,93666.34
2023-02-22T00:12:50.834Z,93674.53
2023-02-22T00:13:50.566Z,93672.09
2023-02-22T00:14:47.196Z,93668.63
2023-02-22T00:15:44.375Z,93675.91
2023-02-22T00:16:41.228Z,93665.91
2023-02-22T00:17:37.840Z,93667.53
2023-02-22T00:18:34.465Z,93646.72
2023-02-22T00:19:31.347Z,93668.00
2023-02-22T00:20:28.484Z,93668.75
2023-02-22T00:21:25.100Z,93676.69
2023-02-22T00:22:21.736Z,93652.81
2023-02-22T00:23:21.126Z,93671.91
2023-02-22T00:24:23.387Z,93666.09
2023-02-22T00:25:21.213Z,93675.25
2023-02-22T00:26:20.718Z,93670.66
2023-02-22T00:27:17.365Z,93672.53
2023-02-22T00:28:15.292Z,93664.88
2023-02-22T00:29:11.969Z,93666.78
2023-02-22T00:30:09.571Z,93665.31
2023-02-22T00:31:06.847Z,93678.69
2023-02-22T00:32:03.511Z,93668.78
2023-02-22T00:33:00.952Z,93668.44
2023-02-22T00:33:57.494Z,93672.84
2023-02-22T00:34:54.603Z,93648.13
2023-02-22T00:35:51.270Z,93674.63
2023-02-22T00:36:50.537Z,93630.84
2023-02-22T00:37:49.028Z,93682.09
2023-02-22T00:38:45.637Z,93669.69
2023-02-22T00:39:42.286Z,93662.97
2023-02-22T00:40:40.240Z,93664.06
2023-02-22T00:41:36.907Z,93669.16
2023-02-22T00:42:33.490Z,93669.81
2023-02-22T00:43:30.086Z,93648.81
2023-02-22T00:44:27.536Z,93667.75
2023-02-22T00:45:26.176Z,93660.47
2023-02-22T00:46:22.786Z,93654.94
2023-02-22T00:47:19.368Z,93660.22
2023-02-22T00:48:15.979Z,93616.84
2023-02-22T00:49:12.863Z,93663.84
2023-02-22T00:50:10.148Z,93661.72
2023-02-22T00:51:06.918Z,93600.13
2023-02-22T00:52:04.771Z,93662.47
2023-02-22T00:53:03.876Z,93618.78
2023-02-22T00:54:00.510Z,93657.59
2023-02-22T00:54:58.138Z,93661.13
2023-02-22T00:55:54.801Z,93655.72
2023-02-22T00:56:51.683Z,93662.72
2023-02-22T00:57:48.586Z,93628.81
2023-02-22T00:58:45.181Z,93653.06
2023-02-22T00:59:41.744Z,93652.72
2023-02-22T01:00:41.696Z,93653.19
2023-02-22T01:01:38.391Z,93657.66
2023-02-22T01:02:35.033Z,93590.03
2023-02-22T01:03:32.319Z,93638.88
2023-02-22T01:04:29.139Z,93629.50
2023-02-22T01:05:28.675Z,93642.28
2023-02-22T01:06:25.453Z,93637.16
2023-02-22T01:07:22.075Z,93643.75
2023-02-22T01:08:18.774Z,93646.16
2023-02-22T01:09:15.418Z,93645.09
2023-02-22T01:10:13.388Z,93582.13
2023-02-22T01:11:10.358Z,93635.69
2023-02-22T01:12:08.156Z,93644.34
2023-02-22T01:13:09.016Z,93650.22
2023-02-22T01:14:09.698Z,93638.91
2023-02-22T01:15:10.469Z,93639.56
2023-02-22T01:16:08.383Z,93598.44
2023-02-22T01:17:05.419Z,93541.31
2023-02-22T01:18:03.165Z,93636.19
2023-02-22T01:19:01.456Z,93635.09
2023-02-22T01:19:58.053Z,93632.66
2023-02-22T01:20:54.747Z,93630.88
2023-02-22T01:21:51.562Z,93639.34
2023-02-22T01:22:49.954Z,93640.22
2023-02-22T01:23:47.501Z,93638.34
2023-02-22T01:24:44.151Z,93576.25
2023-02-22T01:25:40.794Z,93625.75
2023-02-22T01:26:38.060Z,93591.91
2023-02-22T01:27:35.466Z,93632.03
2023-02-22T01:28:32.973Z,93628.88
2023-02-22T01:29:29.611Z,93636.47
2023-02-22T01:30:30.282Z,93633.06
2023-02-22T01:31:27.588Z,93633.78
2023-02-22T01:32:24.271Z,93628.13
2023-02-22T01:33:20.844Z,93628.88
2023-02-22T01:34:19.737Z,93628.94
2023-02-22T01:35:18.561Z,93630.34
2023-02-22T01:36:15.242Z,93627.00
2023-02-22T01:37:11.970Z,93643.81
2023-02-22T01:38:10.283Z,93628.97
2023-02-22T01:39:07.006Z,93629.66
2023-02-22T01:40:07.323Z,93624.78
2023-02-22T01:41:05.463Z,93625.75
2023-02-22T01:42:02.075Z,93631.41
2023-02-22T01:43:01.136Z,93634.44
2023-02-22T01:43:57.705Z,93625.44
2023-02-22T01:45:32.589Z,93627.56
2023-02-22T01:46:29.965Z,93624.59
2023-02-22T01:47:26.606Z,93555.31
2023-02-22T01:48:55.188Z,93632.75
2023-02-22T01:49:52.168Z,93623.44
2023-02-22T01:50:54.146Z,93579.38
2023-02-22T01:51:53.518Z,93634.84
2023-02-22T01:52:50.626Z,93627.19
2023-02-22T01:53:55.584Z,93633.47
2023-02-22T01:54:57.687Z,93624.69
2023-02-22T01:55:55.707Z,93624.81
2023-02-22T01:57:17.983Z,93633.75
2023-02-22T01:58:19.099Z,93632.69
2023-02-22T01:59:15.745Z,93608.06
2023-02-22T02:00:17.036Z,93629.72
2023-02-22T02:01:15.181Z,93644.97
2023-02-22T02:02:13.665Z,93622.09
2023-02-22T02:03:18.985Z,93626.19
2023-02-22T02:04:20.732Z,93630.97
2023-02-22T02:05:17.888Z,93627.31
2023-02-22T02:06:15.759Z,93629.06
2023-02-22T02:07:14.970Z,93614.78
2023-02-22T02:08:27.236Z,93615.44
2023-02-22T02:09:36.632Z,93628.94
2023-02-22T02:10:34.753Z,93617.06
2023-02-22T02:11:32.695Z,93620.28
2023-02-22T02:12:32.787Z,93619.50
2023-02-22T02:13:29.897Z,93632.75
2023-02-22T02:14:27.404Z,93550.50
2023-02-22T02:15:31.083Z,93629.78
2023-02-22T02:16:56.306Z,93570.75
2023-02-22T02:17:54.933Z,93591.84
2023-02-22T02:18:52.102Z,93603.28
2023-02-22T02:20:07.376Z,93627.78
2023-02-22T02:21:19.288Z,93629.13
2023-02-22T02:22:31.057Z,93635.66
2023-02-22T02:23:45.748Z,93629.34
2023-02-22T02:25:05.228Z,93621.88
2023-02-22T02:26:35.711Z,93632.56
2023-02-22T02:27:51.336Z,93630.41
2023-02-22T02:29:16.245Z,93627.50
2023-02-22T02:30:43.996Z,93628.25
2023-02-22T02:32:31.927Z,93629.59
2023-02-22T02:33:57.104Z,93633.66
2023-02-22T02:35:08.804Z,93627.72
2023-02-22T02:36:12.997Z,93622.34
2023-02-22T02:37:27.529Z,93632.38
2023-02-22T02:38:36.214Z,93630.72
2023-02-22T02:39:46.567Z,93628.88
2023-02-22T02:40:58.557Z,93633.53
2023-02-22T02:41:57.648Z,93625.78
2023-02-22T02:42:54.176Z,93634.22
2023-02-22T02:44:00.682Z,93644.53
2023-02-22T02:45:16.019Z,93639.00
2023-02-22T02:46:23.888Z,93634.19
2023-02-22T02:47:30.153Z,93643.75
2023-02-22T02:48:28.965Z,93636.06
2023-02-22T02:49:41.978Z,93628.66
2023-02-22T02:50:42.785Z,93633.66
2023-02-22T02:51:44.693Z,93633.47
2023-02-22T02:52:42.243Z,93640.75
2023-02-22T02:53:43.464Z,93553.66
2023-02-22T02:54:41.410Z,93625.69
2023-02-22T02:55:38.410Z,93638.56
2023-02-22T02:56:35.498Z,93577.69
2023-02-22T02:57:32.358Z,93603.19
2023-02-22T02:58:28.981Z,93626.66
2023-02-22T02:59:29.085Z,93553.06
2023-02-22T03:00:30.484Z,93588.34
2023-02-22T03:01:27.069Z,93632.84
2023-02-22T03:02:34.681Z,93636.38
2023-02-22T03:03:56.400Z,93634.81
2023-02-22T03:05:07.462Z,93635.13
2023-02-22T03:06:13.441Z,93635.13
2023-02-22T03:07:33.480Z,93632.06
2023-02-22T03:08:57.025Z,93605.25
2023-02-22T03:10:21.383Z,93636.06
2023-02-22T03:12:02.181Z,93624.19
2023-02-22T03:13:12.716Z,93635.41
2023-02-22T03:14:24.972Z,93623.31
2023-02-22T03:15:51.429Z,93633.78
2023-02-22T03:17:00.620Z,93634.72
2023-02-22T03:18:02.836Z,93631.16
2023-02-22T03:19:08.943Z,93646.47
2023-02-22T03:20:31.522Z,93634.91
2023-02-22T03:21:47.001Z,93623.44
2023-02-22T03:22:57.499Z,93599.06
2023-02-22T03:24:03.995Z,93634.75
2023-02-22T03:25:15.246Z,93615.59
2023-02-22T03:26:19.575Z,93601.19
2023-02-22T03:27:43.568Z,93635.81
2023-02-22T03:28:43.166Z,93640.16
2023-02-22T03:29:43.158Z,93640.25
2023-02-22T03:30:48.943Z,93575.28
2023-02-22T03:31:51.394Z,93631.53
2023-02-22T03:32:50.993Z,93633.72
2023-02-22T03:34:10.038Z,93642.94
2023-02-22T03:35:14.864Z,93643.72
2023-02-22T03:36:24.988Z,93637.19
2023-02-22T03:37:25.890Z,93636.44
2023-02-22T03:38:26.633Z,93646.84
2023-02-22T03:39:31.080Z,93636.28
2023-02-22T03:40:43.460Z,93637.41
2023-02-22T03:41:40.695Z,93644.41
2023-02-22T03:42:38.823Z,93587.06
2023-02-22T03:43:42.539Z,93641.44
2023-02-22T03:44:41.771Z,93639.44
2023-02-22T03:45:40.667Z,93639.28
2023-02-22T03:46:40.669Z,93643.16
2023-02-22T03:47:52.981Z,93637.41
2023-02-22T03:49:20.158Z,93642.53
2023-02-22T03:50:21.388Z,93595.41
2023-02-22T03:51:18.925Z,93644.66
2023-02-22T03:52:15.864Z,93642.72
2023-02-22T03:53:12.557Z,93648.53
2023-02-22T03:54:16.417Z,93641.59
2023-02-22T03:55:17.748Z,93640.97
2023-02-22T03:56:22.243Z,93646.91
2023-02-22T03:57:29.398Z,93644.25
2023-02-22T03:58:31.578Z,93652.63
2023-02-22T03:59:28.341Z,93648.91
2023-02-22T04:00:30.656Z,93652.16
2023-02-22T04:01:27.266Z,93650.44
2023-02-22T04:02:23.837Z,93655.41
2023-02-22T04:03:22.070Z,93614.50
2023-02-22T04:04:18.833Z,93660.88
2023-02-22T04:05:15.817Z,93648.59
2023-02-22T04:06:12.427Z,93645.66
2023-02-22T04:07:09.002Z,93563.28
2023-02-22T04:08:06.477Z,93611.63
2023-02-22T04:09:03.128Z,93586.72
2023-02-22T04:09:59.811Z,93642.84
2023-02-22T04:10:56.448Z,93651.25
2023-02-22T04:11:53.008Z,93630.72
2023-02-22T04:12:50.903Z,93615.88
2023-02-22T04:13:47.575Z,93638.09
2023-02-22T04:14:44.484Z,93648.19
2023-02-22T04:15:41.160Z,93588.31
2023-02-22T04:16:37.774Z,93652.25
2023-02-22T04:17:34.406Z,93656.75
2023-02-22T04:18:31.014Z,93655.75
2023-02-22T04:19:27.634Z,93658.59
2023-02-22T04:20:25.675Z,93630.03
2023-02-22T04:21:22.629Z,93596.91
2023-02-22T04:22:19.375Z,93647.94
2023-02-22T04:23:17.026Z,93641.72
2023-02-22T04:24:14.074Z,93490.31
2023-02-22T04:25:10.741Z,93645.75
2023-02-22T04:26:07.462Z,93546.47
2023-02-22T04:27:04.077Z,93657.69
2023-02-22T04:28:00.608Z,93650.38
2023-02-22T04:28:57.138Z,93656.34
2023-02-22T04:29:53.787Z,93651.97
2023-02-22T04:30:50.425Z,93647.44
2023-02-22T04:31:47.199Z,93531.38
2023-02-22T04:32:43.905Z,93619.38
2023-02-22T04:33:40.436Z,93641.28
2023-02-22T04:34:37.078Z,93651.06
2023-02-22T04:35:35.497Z,93653.81
2023-02-22T04:36:32.726Z,93621.44
2023-02-22T04:37:29.395Z,93635.56
2023-02-22T04:38:26.827Z,93650.53
2023-02-22T04:39:23.498Z,93651.47
2023-02-22T04:40:20.282Z,93650.47
2023-02-22T04:41:19.025Z,93657.75
2023-02-22T04:42:15.794Z,93654.59
2023-02-22T04:43:12.416Z,93646.50
2023-02-22T04:44:09.174Z,93653.81
2023-02-22T04:45:08.028Z,93655.47
2023-02-22T04:46:04.909Z,93643.97
2023-02-22T04:47:01.570Z,93657.81
2023-02-22T04:47:58.475Z,93656.59
2023-02-22T04:48:55.277Z,93597.19
2023-02-22T04:49:52.032Z,93651.94
2023-02-22T04:50:48.703Z,93653.47
2023-02-22T04:51:45.734Z,93654.47
2023-02-22T04:52:42.408Z,93644.06
2023-02-22T04:53:39.016Z,93647.75
2023-02-22T04:54:35.632Z,93642.28
2023-02-22T04:55:32.268Z,93646.47
2023-02-22T04:56:28.863Z,93641.00
2023-02-22T04:57:25.637Z,93644.00
2023-02-22T04:58:22.269Z,93648.34
2023-02-22T04:59:19.835Z,93653.06
2023-02-22T05:00:18.885Z,93657.09
2023-02-22T05:01:16.694Z,93657.31
2023-02-22T05:02:13.642Z,93652.41
2023-02-22T05:03:10.170Z,93653.25
2023-02-22T05:04:07.847Z,93648.47
2023-02-22T05:05:04.754Z,93660.03
2023-02-22T05:06:01.628Z,93650.53
2023-02-22T05:06:58.246Z,93645.53
2023-02-22T05:07:54.807Z,93577.13
2023-02-22T05:08:51.427Z,93611.63
2023-02-22T05:09:48.026Z,93653.25
2023-02-22T05:10:47.033Z,93628.66
2023-02-22T05:11:43.604Z,93654.09
2023-02-22T05:12:40.535Z,93662.38
2023-02-22T05:13:37.087Z,93655.56
2023-02-22T05:14:33.892Z,93652.25
2023-02-22T05:15:30.453Z,93660.47
2023-02-22T05:16:27.126Z,93660.84
2023-02-22T05:17:23.815Z,93671.88
2023-02-22T05:18:20.969Z,93669.75
2023-02-22T05:19:17.696Z,93668.03
2023-02-22T05:20:35.071Z,93668.72
2023-02-22T05:21:31.744Z,93662.22
2023-02-22T05:22:28.547Z,93668.75
2023-02-22T05:23:25.121Z,93666.75
2023-02-22T05:24:21.786Z,93670.81
2023-02-22T05:25:20.439Z,93669.69
2023-02-22T05:26:17.045Z,93572.69
2023-02-22T05:27:13.828Z,93668.00
2023-02-22T05:28:17.837Z,93635.69
2023-02-22T05:29:14.511Z,93669.91
2023-02-22T05:30:12.044Z,93679.69
2023-02-22T05:31:08.916Z,93674.06
2023-02-22T05:32:06.805Z,93679.66
2023-02-22T05:33:03.490Z,93676.41
2023-02-22T05:34:00.186Z,93681.69
2023-02-22T05:34:56.802Z,93682.78
2023-02-22T05:35:56.066Z,93683.59
2023-02-22T05:36:52.792Z,93684.69
2023-02-22T05:37:50.820Z,93684.69
2023-02-22T05:38:47.473Z,93679.06
2023-02-22T05:39:46.518Z,93678.78
2023-02-22T05:40:43.497Z,93654.97
2023-02-22T05:41:40.190Z,93679.25
2023-02-22T05:42:36.730Z,93672.84
2023-02-22T05:43:33.446Z,93650.31
2023-02-22T05:44:30.082Z,93686.06
2023-02-22T05:45:28.048Z,93669.59
2023-02-22T05:46:25.164Z,93683.59
2023-02-22T05:47:21.860Z,93689.47
2023-02-22T05:48:18.525Z,93652.63
2023-02-22T05:49:15.846Z,93688.66
2023-02-22T05:50:13.222Z,93687.69
2023-02-22T05:51:10.749Z,93689.84
2023-02-22T05:52:07.326Z,93693.75
2023-02-22T05:53:05.661Z,93695.47
2023-02-22T05:54:02.299Z,93690.47
2023-02-22T05:54:58.849Z,93682.81
2023-02-22T05:55:55.572Z,93687.81
2023-02-22T05:56:52.166Z,93688.94
2023-02-22T05:57:49.255Z,93693.75
2023-02-22T05:58:45.904Z,93683.34
2023-02-22T05:59:43.202Z,93689.59
2023-02-22T06:00:39.825Z,93668.75
2023-02-22T06:01:36.346Z,93685.97
2023-02-22T06:02:33.570Z,93690.63
2023-02-22T06:03:30.139Z,93693.28
2023-02-22T06:04:27.936Z,93638.69
2023-02-22T06:05:25.176Z,93641.94
2023-02-22T06:06:22.448Z,93686.50
2023-02-22T06:07:19.251Z,93700.63
2023-02-22T06:08:16.055Z,93700.16
2023-02-22T06:09:12.633Z,93673.78
2023-02-22T06:10:09.326Z,93697.72
2023-02-22T06:11:05.990Z,93658.44
2023-02-22T06:12:02.650Z,93667.56
2023-02-22T06:13:00.475Z,93650.25
2023-02-22T06:13:57.114Z,93695.88
2023-02-22T06:14:53.670Z,93709.84
2023-02-22T06:15:50.349Z,93627.78
2023-02-22T06:16:53.095Z,93707.34
2023-02-22T06:17:50.404Z,93707.75
2023-02-22T06:18:48.158Z,93706.91
2023-02-22T06:19:44.783Z,93675.56
2023-02-22T06:20:41.543Z,93710.91
2023-02-22T06:21:38.160Z,93712.13
2023-02-22T06:22:34.813Z,93709.47
2023-02-22T06:23:31.433Z,93704.75
2023-02-22T06:24:28.057Z,93710.47
2023-02-22T06:25:28.765Z,93663.47
2023-02-22T06:26:25.367Z,93705.16
2023-02-22T06:27:21.944Z,93709.81
2023-02-22T06:28:18.497Z,93714.72
2023-02-22T06:29:15.040Z,93720.03
2023-02-22T06:30:13.459Z,93705.25
2023-02-22T06:31:10.165Z,93718.34
2023-02-22T06:32:06.875Z,93635.69
2023-02-22T06:33:03.610Z,93697.47
2023-02-22T06:34:00.248Z,93712.47
2023-02-22T06:34:56.802Z,93709.19
2023-02-22T06:35:53.533Z,93710.28
2023-02-22T06:36:50.365Z,93679.78
2023-02-22T06:37:47.990Z,93710.28
2023-02-22T06:38:44.623Z,93710.38
2023-02-22T06:39:41.302Z,93706.53
2023-02-22T06:40:37.963Z,93708.19
2023-02-22T06:41:37.636Z,93708.69
2023-02-22T06:42:34.345Z,93713.00
2023-02-22T06:43:30.962Z,93717.34
2023-02-22T06:44:27.579Z,93720.19
2023-02-22T06:45:24.278Z,93707.91
2023-02-22T06:46:21.877Z,93720.06
2023-02-22T06:47:18.718Z,93648.50
2023-02-22T06:48:15.282Z,93716.31
2023-02-22T06:49:13.501Z,93718.41
2023-02-22T06:50:28.992Z,93718.53
2023-02-22T06:51:27.043Z,93700.91
2023-02-22T06:52:24.090Z,93716.13
2023-02-22T06:53:20.634Z,93716.59
2023-02-22T06:54:17.195Z,93718.56
2023-02-22T06:55:18.586Z,93715.38
2023-02-22T06:56:15.129Z,93711.88
2023-02-22T06:57:11.747Z,93709.63
2023-02-22T06:58:08.403Z,93717.84
2023-02-22T06:59:05.038Z,93717.97
2023-02-22T07:00:01.590Z,93707.88
2023-02-22T07:00:58.209Z,93719.28
2023-02-22T07:01:54.803Z,93704.78
2023-02-22T07:02:52.456Z,93715.09
2023-02-22T07:03:50.028Z,93722.63
2023-02-22T07:04:46.721Z,93719.16
2023-02-22T07:05:43.608Z,93721.88
2023-02-22T07:06:47.016Z,93709.03
2023-02-22T07:07:43.751Z,93710.16
2023-02-22T07:08:40.346Z,93708.44
2023-02-22T07:09:37.024Z,93712.31
2023-02-22T07:10:35.294Z,93714.09
2023-02-22T07:11:32.029Z,93711.56
2023-02-22T07:12:28.741Z,93699.53
2023-02-22T07:13:25.446Z,93679.97
2023-02-22T07:14:22.277Z,93710.59
2023-02-22T07:15:21.780Z,93667.50
2023-02-22T07:16:18.640Z,93600.88
2023-02-22T07:17:15.264Z,93698.94
2023-02-22T07:18:12.281Z,93712.44
2023-02-22T07:19:08.969Z,93705.03
2023-02-22T07:20:06.000Z,93665.38
2023-02-22T07:21:02.655Z,93708.59
2023-02-22T07:21:59.560Z,93698.84
2023-02-22T07:22:56.128Z,93701.75
2023-02-22T07:23:57.523Z,93705.66
2023-02-22T07:24:55.397Z,93668.00
2023-02-22T07:25:51.950Z,93705.63
2023-02-22T07:26:48.531Z,93704.63
2023-02-22T07:27:45.655Z,93704.06
2023-02-22T07:28:42.305Z,93712.22
2023-02-22T07:29:38.881Z,93708.88
2023-02-22T07:30:35.616Z,93682.22
2023-02-22T07:31:36.778Z,93693.59
2023-02-22T07:32:33.467Z,93708.59
2023-02-22T07:33:30.035Z,93706.56
2023-02-22T07:34:26.633Z,93665.38
2023-02-22T07:35:31.793Z,93704.63
2023-02-22T07:36:28.404Z,93709.28
2023-02-22T07:37:25.010Z,93699.22
2023-02-22T07:38:21.654Z,93699.22
2023-02-22T07:39:18.228Z,93709.31
2023-02-22T07:40:16.776Z,93703.84
2023-02-22T07:41:13.482Z,93704.78
2023-02-22T07:42:10.137Z,93699.50
2023-02-22T07:43:20.755Z,93697.69
2023-02-22T07:44:17.825Z,93693.63
2023-02-22T07:45:14.934Z,93700.78
2023-02-22T07:46:11.582Z,93706.38
2023-02-22T07:47:08.997Z,93677.38
2023-02-22T07:48:06.533Z,93696.44
2023-02-22T07:49:03.194Z,93698.72
2023-02-22T07:49:59.804Z,93630.78
2023-02-22T07:50:57.148Z,93653.50
2023-02-22T07:51:53.775Z,93688.84
2023-02-22T07:52:54.911Z,93705.41
2023-02-22T07:53:51.452Z,93700.84
2023-02-22T07:54:48.056Z,93666.88
2023-02-22T07:55:51.022Z,93698.00
2023-02-22T07:56:48.748Z,93699.06
2023-02-22T07:57:47.010Z,93700.94
2023-02-22T07:58:46.606Z,93700.19
2023-02-22T07:59:45.764Z,93700.22
2023-02-22T08:00:44.207Z,93671.75
2023-02-22T08:01:40.869Z,93668.25
2023-02-22T08:02:37.440Z,93701.38
2023-02-22T08:03:36.876Z,93700.72
2023-02-22T08:04:33.541Z,93705.28
2023-02-22T08:05:32.189Z,93696.28
2023-02-22T08:06:30.169Z,93709.25
2023-02-22T08:07:26.887Z,93694.56
2023-02-22T08:08:24.101Z,93705.81
2023-02-22T08:09:20.801Z,93698.78
2023-02-22T08:10:19.579Z,93698.00
2023-02-22T08:11:16.553Z,93700.34
2023-02-22T08:12:13.286Z,93676.69
2023-02-22T08:13:11.077Z,93698.59
2023-02-22T08:14:07.691Z,93696.22
2023-02-22T08:15:06.405Z,93696.94
2023-02-22T08:16:03.652Z,93691.53
2023-02-22T08:17:00.351Z,93696.25
2023-02-22T08:17:58.973Z,93697.22
2023-02-22T08:18:55.598Z,93699.56
2023-02-22T08:19:52.142Z,93690.34
2023-02-22T08:20:51.995Z,93695.50
2023-02-22T08:21:48.655Z,93698.06
2023-02-22T08:22:46.388Z,93699.00
2023-02-22T08:23:42.993Z,93690.25
2023-02-22T08:24:40.709Z,93698.78
2023-02-22T08:25:37.742Z,93698.00
2023-02-22T08:26:34.293Z,93648.41
2023-02-22T08:27:31.333Z,93701.59
2023-02-22T08:28:27.957Z,93699.66
2023-02-22T08:29:27.758Z,93693.88
2023-02-22T08:30:25.368Z,93658.84
2023-02-22T08:31:22.148Z,93672.53
2023-02-22T08:32:19.380Z,93682.88
2023-02-22T08:33:19.531Z,93700.69
2023-02-22T08:34:16.455Z,93637.97
2023-02-22T08:35:14.653Z,93693.16
2023-02-22T08:36:11.208Z,93695.44
2023-02-22T08:37:07.808Z,93662.00
2023-02-22T08:38:06.206Z,93704.63
2023-02-22T08:39:02.849Z,93698.00
2023-02-22T08:39:59.934Z,93698.28
2023-02-22T08:40:57.041Z,93693.22
2023-02-22T08:41:53.841Z,93665.25
2023-02-22T08:42:50.687Z,93694.56
2023-02-22T08:43:47.284Z,93690.97
2023-02-22T08:44:43.964Z,93690.38
2023-02-22T08:45:40.934Z,93695.91
2023-02-22T08:46:37.565Z,93695.13
2023-02-22T08:47:34.318Z,93658.94
2023-02-22T08:48:31.025Z,93691.00
2023-02-22T08:49:27.708Z,93678.59
2023-02-22T08:50:27.713Z,93694.88
2023-02-22T08:51:27.665Z,93685.22
2023-02-22T08:52:24.424Z,93698.50
2023-02-22T08:53:20.970Z,93619.28
2023-02-22T08:54:18.286Z,93645.53
2023-02-22T08:55:15.150Z,93693.38
2023-02-22T08:56:11.864Z,93687.75
2023-02-22T08:57:08.431Z,93688.06
2023-02-22T08:58:09.404Z,93691.13
2023-02-22T08:59:06.160Z,93662.63
2023-02-22T09:00:04.887Z,93651.41
2023-02-22T09:01:01.485Z,93690.72
2023-02-22T09:01:58.135Z,93680.81
2023-02-22T09:02:55.127Z,93676.94
2023-02-22T09:03:52.192Z,93680.84
2023-02-22T09:04:49.493Z,93688.19
2023-02-22T09:05:46.213Z,93682.34
2023-02-22T09:06:44.212Z,93658.84
2023-02-22T09:07:42.218Z,93697.09
2023-02-22T09:08:38.798Z,93685.41
2023-02-22T09:09:35.827Z,93682.81
2023-02-22T09:10:34.065Z,93683.69
2023-02-22T09:11:30.743Z,93679.78
2023-02-22T09:12:27.340Z,93680.06
2023-02-22T09:13:23.921Z,93679.13
2023-02-22T09:14:20.562Z,93681.69
2023-02-22T09:15:17.245Z,93680.63
2023-02-22T09:16:14.106Z,93682.03
2023-02-22T09:17:10.671Z,93675.38
2023-02-22T09:18:10.756Z,93678.88
2023-02-22T09:19:07.480Z,93676.13
2023-02-22T09:20:05.522Z,93669.91
2023-02-22T09:21:02.128Z,93682.09
2023-02-22T09:22:02.622Z,93678.81
2023-02-22T09:22:59.741Z,93679.94
2023-02-22T09:23:56.371Z,93674.69
2023-02-22T09:24:53.554Z,93677.00
2023-02-22T09:25:50.647Z,93679.63
2023-02-22T09:26:52.009Z,93674.31
2023-02-22T09:27:50.147Z,93677.03
2023-02-22T09:28:46.698Z,93635.53
2023-02-22T09:29:43.235Z,93678.50
2023-02-22T09:30:40.439Z,93671.50
2023-02-22T09:31:38.448Z,93673.75
2023-02-22T09:32:36.661Z,93672.22
2023-02-22T09:33:33.326Z,93605.59
2023-02-22T09:34:29.987Z,93674.84
2023-02-22T09:35:27.801Z,93673.53
2023-02-22T09:36:26.110Z,93670.88
2023-02-22T09:37:23.053Z,93673.97
2023-02-22T09:38:26.029Z,93670.38
2023-02-22T09:39:22.967Z,93668.47
2023-02-22T09:40:25.315Z,93666.84
2023-02-22T09:41:36.161Z,93669.00
2023-02-22T09:42:45.661Z,93668.25
2023-02-22T09:43:55.168Z,93669.53
2023-02-22T09:45:12.945Z,93668.31
2023-02-22T09:46:30.917Z,93667.94
2023-02-22T09:47:40.129Z,93664.38
2023-02-22T09:48:59.440Z,93669.81
2023-02-22T09:50:04.422Z,93664.09
2023-02-22T09:51:04.163Z,93657.75
2023-02-22T09:53:04.365Z,93666.38
2023-02-22T09:54:04.440Z,93666.19
2023-02-22T09:55:28.704Z,93663.91
2023-02-22T09:56:28.213Z,93665.28
2023-02-22T09:57:35.292Z,93660.22
2023-02-22T09:58:36.822Z,93665.25
2023-02-22T10:00:01.122Z,93622.19
2023-02-22T10:01:14.397Z,93657.25
2023-02-22T10:02:34.703Z,93660.50
2023-02-22T10:03:42.239Z,93648.25
2023-02-22T10:04:49.046Z,93655.41
2023-02-22T10:05:53.752Z,93651.94
2023-02-22T10:07:06.196Z,93648.13
2023-02-22T10:08:06.102Z,93647.00
2023-02-22T10:09:08.127Z,93640.88
2023-02-22T10:10:06.627Z,93642.91
2023-02-22T10:11:13.047Z,93648.41
2023-02-22T10:12:20.395Z,93640.81
2023-02-22T10:13:28.871Z,93608.38
2023-02-22T10:14:47.031Z,93646.91
2023-02-22T10:15:51.607Z,93606.63
2023-02-22T10:16:57.421Z,93645.06
2023-02-22T10:17:57.036Z,93635.88
2023-02-22T10:19:12.505Z,93631.75
2023-02-22T10:20:24.083Z,93627.31
2023-02-22T10:21:57.683Z,93626.84
2023-02-22T10:22:54.260Z,93631.50
2023-02-22T10:24:28.162Z,93624.84
2023-02-22T10:25:29.780Z,93617.97
2023-02-22T10:26:31.114Z,93615.66
2023-02-22T10:27:33.060Z,93622.22
2023-02-22T10:28:39.586Z,93617.63
2023-02-22T10:30:10.063Z,93597.56
2023-02-22T10:31:27.194Z,93612.91
2023-02-22T10:32:29.257Z,93609.53
2023-02-22T10:33:33.779Z,93607.28
2023-02-22T10:34:49.516Z,93577.69
2023-02-22T10:35:47.355Z,93599.38
2023-02-22T10:36:47.880Z,93563.56
2023-02-22T10:37:45.835Z,93604.22
2023-02-22T10:38:53.067Z,93592.97
2023-02-22T10:39:53.627Z,93584.88
2023-02-22T10:41:08.710Z,93603.91
2023-02-22T10:42:08.125Z,93594.28
2023-02-22T10:43:08.028Z,93587.03
2023-02-22T10:44:04.831Z,93581.69
2023-02-22T10:45:01.405Z,93589.28
2023-02-22T10:46:02.963Z,93598.16
2023-02-22T10:47:02.204Z,93586.22
2023-02-22T10:48:02.034Z,93581.28
2023-02-22T10:49:04.552Z,93583.59
2023-02-22T10:50:01.286Z,93579.00
2023-02-22T10:51:02.590Z,93579.34
2023-02-22T10:52:12.736Z,93581.25
2023-02-22T10:53:10.979Z,93575.47
2023-02-22T10:54:13.470Z,93579.34
2023-02-22T10:55:15.812Z,93572.03
2023-02-22T10:56:19.098Z,93571.25
2023-02-22T10:57:22.047Z,93565.84
2023-02-22T10:58:18.655Z,93529.75
2023-02-22T10:59:37.014Z,93563.16
2023-02-22T11:00:39.885Z,93568.91
2023-02-22T11:01:40.845Z,93511.31
2023-02-22T11:02:37.871Z,93566.28
2023-02-22T11:03:34.710Z,93568.22
2023-02-22T11:04:54.521Z,93567.06
2023-02-22T11:05:52.593Z,93566.28
2023-02-22T11:07:09.181Z,93525.31
2023-02-22T11:08:21.060Z,93560.44
2023-02-22T11:09:22.523Z,93531.31
2023-02-22T11:10:31.516Z,93557.38
2023-02-22T11:11:29.460Z,93544.69
2023-02-22T11:12:33.418Z,93522.00
2023-02-22T11:13:36.941Z,93557.41
2023-02-22T11:14:33.584Z,93554.31
2023-02-22T11:15:30.390Z,93534.59
2023-02-22T11:16:28.384Z,93557.34
2023-02-22T11:17:32.416Z,93559.72
2023-02-22T11:18:35.078Z,93548.16
2023-02-22T11:19:33.178Z,93547.00
2023-02-22T11:20:38.575Z,93511.16
2023-02-22T11:21:35.495Z,93546.97
2023-02-22T11:22:41.109Z,93541.22
2023-02-22T11:23:41.444Z,93551.59
2023-02-22T11:25:07.586Z,93537.00
2023-02-22T11:26:17.669Z,93494.28
2023-02-22T11:27:31.668Z,93541.22
2023-02-22T11:28:31.054Z,93523.09
2023-02-22T11:29:34.460Z,93530.88
2023-02-22T11:30:36.186Z,93525.09
2023-02-22T11:31:32.846Z,93525.91
2023-02-22T11:32:29.421Z,93477.81
2023-02-22T11:33:29.304Z,93459.78
2023-02-22T11:34:33.462Z,93527.81
2023-02-22T11:35:38.606Z,93532.81
2023-02-22T11:36:40.921Z,93523.59
2023-02-22T11:37:37.603Z,93480.94
2023-02-22T11:38:39.065Z,93527.72
2023-02-22T11:39:35.759Z,93524.72
2023-02-22T11:40:34.558Z,93531.94
2023-02-22T11:41:36.676Z,93525.13
2023-02-22T11:42:33.721Z,93533.91
2023-02-22T11:43:31.323Z,93529.00
2023-02-22T11:44:32.556Z,93528.19
2023-02-22T11:45:29.169Z,93526.63
2023-02-22T11:46:32.135Z,93482.81
2023-02-22T11:47:29.347Z,93485.91
2023-02-22T11:48:28.512Z,93517.31
2023-02-22T11:49:34.418Z,93524.22
2023-02-22T11:50:33.127Z,93520.03
2023-02-22T11:51:45.128Z,93522.28